TimeEDT,TemperatureF,Dew PointF,Humidity,Sea Level PressureIn,VisibilityMPH,Wind Direction,Wind SpeedMPH,Gust SpeedMPH,PrecipitationIn,Events,Conditions,WindDirDegrees,DateUTC
12:54 AM,41.0,30.9,67,29.79,10.0,Calm,Calm,-,N/A,,Mostly Cloudy,0,2013-03-16 04:54:00
1:54 AM,41.0,30.0,65,29.79,10.0,Calm,Calm,-,N/A,,Mostly Cloudy,0,2013-03-16 05:54:00
2:54 AM,41.0,30.9,67,29.80,10.0,Calm,Calm,-,N/A,,Overcast,0,2013-03-16 06:54:00
3:54 AM,46.0,32.0,58,29.79,10.0,North,5.8,-,N/A,,Overcast,10,2013-03-16 07:54:00
4:54 AM,46.0,32.0,58,29.79,10.0,NE,3.5,-,N/A,,Overcast,40,2013-03-16 08:54:00
5:54 AM,44.1,33.1,65,29.79,10.0,East,4.6,-,N/A,,Overcast,100,2013-03-16 09:54:00
6:54 AM,45.0,33.1,63,29.81,9.0,East,6.9,-,N/A,,Overcast,90,2013-03-16 10:54:00
7:54 AM,44.1,33.1,65,29.81,10.0,East,9.2,-,N/A,,Overcast,90,2013-03-16 11:54:00
8:54 AM,44.1,34.0,68,29.83,9.0,East,8.1,-,N/A,,Overcast,80,2013-03-16 12:54:00
9:54 AM,44.1,33.1,65,29.81,8.0,East,6.9,-,0.00,,Overcast,80,2013-03-16 13:54:00
10:54 AM,46.0,32.0,58,29.78,10.0,East,8.1,-,N/A,,Overcast,100,2013-03-16 14:54:00
11:54 AM,48.9,32.0,52,29.76,10.0,East,6.9,-,N/A,,Overcast,90,2013-03-16 15:54:00
12:54 PM,50.0,33.1,52,29.72,10.0,ESE,9.2,-,N/A,,Overcast,110,2013-03-16 16:54:00
1:54 PM,50.0,34.0,54,29.69,9.0,ENE,13.8,-,N/A,,Overcast,70,2013-03-16 17:54:00
2:54 PM,52.0,35.1,53,29.68,9.0,East,11.5,-,N/A,,Mostly Cloudy,80,2013-03-16 18:54:00
3:54 PM,51.1,36.0,56,29.67,9.0,ENE,10.4,-,N/A,,Mostly Cloudy,70,2013-03-16 19:54:00
4:54 PM,46.9,34.0,61,29.68,10.0,NE,15.0,-,N/A,,Overcast,40,2013-03-16 20:54:00
5:54 PM,45.0,34.0,65,29.70,10.0,ENE,13.8,-,N/A,,Overcast,60,2013-03-16 21:54:00
6:54 PM,43.0,33.1,68,29.75,10.0,NNE,15.0,-,N/A,,Overcast,30,2013-03-16 22:54:00
7:54 PM,39.9,33.1,77,29.79,9.0,NNE,9.2,-,N/A,,Overcast,30,2013-03-16 23:54:00
8:54 PM,39.0,32.0,76,29.84,8.0,NNE,8.1,-,N/A,,Overcast,30,2013-03-17 00:54:00
9:54 PM,39.0,32.0,76,29.88,8.0,North,5.8,-,N/A,,Overcast,10,2013-03-17 01:54:00
10:54 PM,37.9,32.0,79,29.91,8.0,North,5.8,-,N/A,,Overcast,10,2013-03-17 02:54:00
11:54 PM,37.9,32.0,79,29.93,7.0,North,5.8,-,N/A,,Overcast,350,2013-03-17 03:54:00